createdAt,value
2018-12-04T00:00:19.492Z,987.11
2018-12-04T00:01:26.715Z,987.14
2018-12-04T00:02:31.939Z,987.08
2018-12-04T00:03:38.167Z,987.10
2018-12-04T00:04:44.407Z,987.06
2018-12-04T00:05:50.641Z,987.00
2018-12-04T00:06:56.867Z,987.02
2018-12-04T00:08:03.105Z,987.16
2018-12-04T00:09:09.333Z,987.04
2018-12-04T00:10:15.567Z,987.06
2018-12-04T00:11:21.800Z,987.12
2018-12-04T00:12:28.032Z,987.19
2018-12-04T00:13:34.271Z,987.08
2018-12-04T00:14:40.498Z,987.14
2018-12-04T00:15:46.748Z,987.20
2018-12-04T00:16:52.981Z,987.08
2018-12-04T00:18:00.209Z,987.07
2018-12-04T00:19:05.449Z,987.15
2018-12-04T00:20:11.690Z,987.12
2018-12-04T00:21:17.919Z,987.14
2018-12-04T00:22:24.158Z,987.22
2018-12-04T00:23:30.372Z,987.13
2018-12-04T00:24:36.613Z,987.06
2018-12-04T00:25:43.043Z,987.29
2018-12-04T00:26:49.073Z,987.20
2018-12-04T00:27:55.309Z,987.19
2018-12-04T00:29:02.585Z,987.20
2018-12-04T00:30:07.768Z,987.27
2018-12-04T00:31:14.010Z,987.26
2018-12-04T00:32:20.241Z,987.28
2018-12-04T00:33:26.585Z,987.33
2018-12-04T00:34:32.712Z,987.32
2018-12-04T00:35:39.429Z,987.23
2018-12-04T00:36:45.175Z,987.35
2018-12-04T00:37:51.399Z,987.34
2018-12-04T00:38:57.636Z,987.34
2018-12-04T00:40:03.866Z,987.37
2018-12-04T00:41:10.091Z,987.37
2018-12-04T00:42:16.312Z,987.41
2018-12-04T00:43:22.582Z,987.38
2018-12-04T00:44:28.784Z,987.45
2018-12-04T00:45:35.010Z,987.51
2018-12-04T00:46:41.235Z,987.61
2018-12-04T00:47:47.485Z,987.59
2018-12-04T00:48:53.695Z,987.68
2018-12-04T00:49:59.930Z,987.69
2018-12-04T00:51:06.157Z,987.74
2018-12-04T00:52:12.372Z,987.77
2018-12-04T00:53:18.605Z,987.78
2018-12-04T00:54:25.816Z,987.75
2018-12-04T00:55:31.046Z,987.80
2018-12-04T00:56:37.278Z,987.80
2018-12-04T00:57:43.500Z,987.84
2018-12-04T00:58:49.731Z,987.80
2018-12-04T00:59:55.943Z,987.87
2018-12-04T01:01:02.181Z,987.86
2018-12-04T01:02:08.406Z,987.90
2018-12-04T01:03:14.626Z,987.95
2018-12-04T01:04:20.854Z,987.90
2018-12-04T01:05:27.077Z,987.96
2018-12-04T01:06:33.305Z,988.01
2018-12-04T01:07:39.594Z,987.99
2018-12-04T01:08:45.765Z,988.07
2018-12-04T01:09:51.990Z,988.10
2018-12-04T01:10:58.211Z,988.06
2018-12-04T01:12:04.446Z,988.03
2018-12-04T01:13:10.665Z,988.10
2018-12-04T01:14:16.947Z,988.08
2018-12-04T01:15:23.119Z,988.13
2018-12-04T01:16:29.345Z,988.10
2018-12-04T01:17:35.574Z,988.11
2018-12-04T01:18:41.803Z,988.14
2018-12-04T01:19:48.022Z,988.08
2018-12-04T01:20:54.252Z,988.21
2018-12-04T01:22:01.152Z,988.12
2018-12-04T01:23:06.694Z,988.18
2018-12-04T01:24:12.929Z,988.18
2018-12-04T01:25:19.162Z,988.20
2018-12-04T01:26:25.384Z,988.22
2018-12-04T01:27:31.614Z,988.23
2018-12-04T01:28:37.837Z,988.30
2018-12-04T01:29:44.073Z,988.25
2018-12-04T01:30:50.290Z,988.21
2018-12-04T01:31:56.534Z,988.22
2018-12-04T01:33:02.777Z,988.17
2018-12-04T01:34:08.987Z,988.14
2018-12-04T01:35:15.207Z,988.17
2018-12-04T01:36:21.436Z,988.20
2018-12-04T01:37:27.668Z,988.26
2018-12-04T01:38:34.906Z,988.28
2018-12-04T01:39:40.133Z,988.25
2018-12-04T01:40:46.361Z,988.27
2018-12-04T01:41:52.611Z,988.30
2018-12-04T01:42:58.819Z,988.23
2018-12-04T01:44:05.045Z,988.27
2018-12-04T01:45:11.271Z,988.26
2018-12-04T01:46:17.492Z,988.25
2018-12-04T01:47:23.723Z,988.30
2018-12-04T01:48:29.946Z,988.42
2018-12-04T01:49:36.166Z,988.43
2018-12-04T01:50:42.387Z,988.48
2018-12-04T01:51:48.622Z,988.46
2018-12-04T01:52:54.858Z,988.54
2018-12-04T01:54:01.071Z,988.58
2018-12-04T01:55:07.301Z,988.57
2018-12-04T01:56:14.573Z,988.64
2018-12-04T01:57:19.772Z,988.59
2018-12-04T01:58:25.989Z,988.65
2018-12-04T01:59:32.224Z,988.72
2018-12-04T02:00:38.437Z,988.80
2018-12-04T02:01:44.668Z,988.75
2018-12-04T02:02:50.889Z,988.84
2018-12-04T02:03:57.119Z,988.78
2018-12-04T02:05:03.341Z,988.86
2018-12-04T02:06:09.561Z,988.85
2018-12-04T02:07:15.784Z,988.85
2018-12-04T02:08:22.016Z,988.78
2018-12-04T02:09:28.246Z,988.84
2018-12-04T02:10:34.553Z,988.84
2018-12-04T02:11:40.706Z,988.85
2018-12-04T02:12:46.919Z,988.85
2018-12-04T02:13:53.138Z,988.94
2018-12-04T02:14:59.361Z,988.91
2018-12-04T02:16:06.580Z,988.95
2018-12-04T02:17:26.751Z,989.01
2018-12-04T02:18:34.605Z,988.95
2018-12-04T02:19:40.820Z,988.99
2018-12-04T02:20:47.038Z,988.95
2018-12-04T02:21:53.266Z,988.92
2018-12-04T02:22:59.589Z,988.92
2018-12-04T02:24:05.713Z,988.94
2018-12-04T02:25:11.930Z,988.84
2018-12-04T02:26:18.146Z,988.83
2018-12-04T02:27:24.383Z,988.85
2018-12-04T02:28:30.598Z,988.88
2018-12-04T02:29:36.836Z,988.90
2018-12-04T02:30:44.054Z,988.94
2018-12-04T02:31:49.296Z,988.99
2018-12-04T02:32:55.511Z,989.03
2018-12-04T02:34:01.744Z,989.03
2018-12-04T02:35:07.980Z,989.11
2018-12-04T02:36:14.199Z,989.12
2018-12-04T02:37:20.458Z,989.07
2018-12-04T02:38:26.651Z,989.15
2018-12-04T02:39:32.891Z,989.11
2018-12-04T02:40:39.113Z,989.12
2018-12-04T02:41:45.335Z,989.17
2018-12-04T02:42:51.566Z,989.14
2018-12-04T02:43:57.793Z,989.15
2018-12-04T02:45:04.032Z,989.14
2018-12-04T02:46:10.241Z,989.15
2018-12-04T02:47:16.771Z,989.26
2018-12-04T02:48:22.694Z,989.33
2018-12-04T02:49:28.929Z,989.28
2018-12-04T02:50:35.139Z,989.29
2018-12-04T02:51:41.366Z,989.27
2018-12-04T02:52:47.791Z,989.31
2018-12-04T02:53:53.808Z,989.31
2018-12-04T02:55:00.044Z,989.39
2018-12-04T02:56:06.256Z,989.37
2018-12-04T02:57:12.471Z,989.46
2018-12-04T02:58:18.704Z,989.36
2018-12-04T02:59:24.920Z,989.37
2018-12-04T03:00:31.144Z,989.41
2018-12-04T03:01:37.362Z,989.30
2018-12-04T03:02:44.567Z,989.39
2018-12-04T03:03:49.788Z,989.43
2018-12-04T03:04:56.033Z,989.47
2018-12-04T03:06:02.231Z,989.46
2018-12-04T03:07:09.436Z,989.40
2018-12-04T03:08:14.654Z,989.49
2018-12-04T03:09:21.075Z,989.42
2018-12-04T03:10:27.099Z,989.49
2018-12-04T03:11:33.311Z,989.54
2018-12-04T03:12:39.512Z,989.50
2018-12-04T03:13:45.740Z,989.54
2018-12-04T03:14:51.945Z,989.53
2018-12-04T03:15:58.159Z,989.51
2018-12-04T03:17:04.356Z,989.62
2018-12-04T03:18:10.556Z,989.55
2018-12-04T03:19:16.771Z,989.58
2018-12-04T03:20:22.985Z,989.64
2018-12-04T03:21:29.190Z,989.71
2018-12-04T03:22:35.392Z,989.80
2018-12-04T03:23:41.611Z,989.79
2018-12-04T03:24:47.819Z,989.78
2018-12-04T03:25:54.028Z,989.86
2018-12-04T03:27:00.236Z,989.88
2018-12-04T03:28:06.447Z,990.05
2018-12-04T03:29:12.655Z,990.03
2018-12-04T03:30:18.852Z,990.01
2018-12-04T03:31:25.074Z,990.06
2018-12-04T03:32:31.291Z,990.07
2018-12-04T03:33:37.610Z,990.18
2018-12-04T03:34:43.704Z,990.17
2018-12-04T03:35:49.910Z,990.08
2018-12-04T03:36:56.110Z,990.06
2018-12-04T03:38:02.328Z,990.03
2018-12-04T03:39:08.534Z,990.08
2018-12-04T03:40:14.740Z,990.08
2018-12-04T03:41:20.954Z,990.12
2018-12-04T03:42:27.157Z,990.11
2018-12-04T03:43:33.365Z,990.15
2018-12-04T03:44:39.576Z,990.24
2018-12-04T03:45:45.775Z,990.17
2018-12-04T03:46:51.990Z,990.09
2018-12-04T03:47:58.198Z,990.09
2018-12-04T03:49:04.405Z,990.24
2018-12-04T03:50:10.601Z,990.15
2018-12-04T03:51:16.834Z,990.21
2018-12-04T03:52:23.017Z,990.28
2018-12-04T03:53:29.229Z,990.30
2018-12-04T03:54:35.429Z,990.26
2018-12-04T03:55:42.637Z,990.38
2018-12-04T03:56:47.852Z,990.35
2018-12-04T03:57:54.053Z,990.39
2018-12-04T03:59:00.252Z,990.34
2018-12-04T04:00:06.460Z,990.36
2018-12-04T04:01:12.664Z,990.49
2018-12-04T04:02:18.873Z,990.38
2018-12-04T04:03:25.067Z,990.42
2018-12-04T04:04:31.274Z,990.45
2018-12-04T04:05:37.580Z,990.55
2018-12-04T04:06:43.691Z,990.46
2018-12-04T04:07:49.896Z,990.42
2018-12-04T04:08:56.098Z,990.50
2018-12-04T04:10:02.303Z,990.53
2018-12-04T04:11:08.495Z,990.53
2018-12-04T04:12:14.708Z,990.56
2018-12-04T04:13:20.897Z,990.56
2018-12-04T04:14:27.107Z,990.68
2018-12-04T04:15:33.296Z,990.61
2018-12-04T04:16:39.593Z,990.66
2018-12-04T04:17:45.700Z,990.67
2018-12-04T04:18:51.894Z,990.74
2018-12-04T04:19:58.113Z,990.77
2018-12-04T04:21:04.282Z,990.82
2018-12-04T04:22:10.488Z,990.87
2018-12-04T04:23:16.674Z,990.94
2018-12-04T04:24:22.866Z,991.02
2018-12-04T04:25:29.051Z,991.10
2018-12-04T04:26:35.247Z,991.19
2018-12-04T04:27:41.441Z,991.17
2018-12-04T04:28:47.630Z,991.21
2018-12-04T04:29:53.819Z,991.25
2018-12-04T04:31:00.010Z,991.37
2018-12-04T04:32:06.209Z,991.38
2018-12-04T04:33:12.380Z,991.51
2018-12-04T04:34:18.569Z,991.55
2018-12-04T04:35:24.743Z,991.58
2018-12-04T04:36:30.927Z,991.59
2018-12-04T04:37:37.123Z,991.66
2018-12-04T04:38:43.298Z,991.70
2018-12-04T04:39:49.583Z,991.78
2018-12-04T04:40:55.663Z,991.87
2018-12-04T04:42:01.842Z,991.91
2018-12-04T04:43:08.021Z,991.90
2018-12-04T04:44:14.199Z,991.93
2018-12-04T04:45:20.366Z,991.96
2018-12-04T04:46:26.539Z,991.96
2018-12-04T04:47:32.735Z,991.89
2018-12-04T04:48:38.901Z,991.97
2018-12-04T04:49:45.078Z,991.96
2018-12-04T04:50:51.270Z,991.96
2018-12-04T04:51:57.425Z,991.90
2018-12-04T04:53:03.606Z,991.94
2018-12-04T04:54:09.766Z,991.89
2018-12-04T04:55:15.946Z,991.93
2018-12-04T04:56:22.123Z,991.91
2018-12-04T04:57:28.302Z,991.95
2018-12-04T04:58:34.565Z,991.98
2018-12-04T04:59:40.636Z,991.97
2018-12-04T05:00:46.810Z,992.00
2018-12-04T05:01:52.965Z,991.97
2018-12-04T05:02:59.147Z,992.07
2018-12-04T05:04:05.316Z,992.05
2018-12-04T05:05:11.580Z,992.14
2018-12-04T05:06:17.633Z,992.11
2018-12-04T05:07:23.799Z,992.21
2018-12-04T05:08:29.973Z,992.17
2018-12-04T05:09:36.129Z,992.28
2018-12-04T05:10:42.288Z,992.35
2018-12-04T05:11:48.448Z,992.41
2018-12-04T05:12:54.606Z,992.46
2018-12-04T05:14:00.774Z,992.49
2018-12-04T05:15:06.927Z,992.56
2018-12-04T05:16:13.091Z,992.59
2018-12-04T05:17:19.243Z,992.64
2018-12-04T05:18:25.403Z,992.68
2018-12-04T05:19:31.553Z,992.73
2018-12-04T05:20:37.717Z,992.71
2018-12-04T05:21:43.870Z,992.78
2018-12-04T05:22:51.018Z,992.84
2018-12-04T05:23:56.197Z,992.88
2018-12-04T05:25:02.336Z,992.92
2018-12-04T05:26:08.492Z,992.95
2018-12-04T05:27:14.648Z,992.92
2018-12-04T05:28:20.810Z,992.99
2018-12-04T05:29:27.011Z,993.04
2018-12-04T05:30:33.102Z,993.12
2018-12-04T05:31:39.263Z,993.13
2018-12-04T05:32:45.413Z,993.18
2018-12-04T05:33:51.569Z,993.17
2018-12-04T05:34:57.708Z,993.17
2018-12-04T05:36:03.869Z,993.12
2018-12-04T05:37:10.018Z,993.13
2018-12-04T05:38:16.186Z,993.14
2018-12-04T05:39:22.330Z,993.21
2018-12-04T05:40:28.475Z,993.18
2018-12-04T05:41:34.632Z,993.29
2018-12-04T05:42:40.779Z,993.32
2018-12-04T05:43:46.930Z,993.35
2018-12-04T05:44:53.078Z,993.39
2018-12-04T05:45:59.223Z,993.36
2018-12-04T05:47:05.384Z,993.39
2018-12-04T05:48:11.519Z,993.38
2018-12-04T05:49:17.697Z,993.37
2018-12-04T05:50:23.825Z,993.38
2018-12-04T05:51:29.998Z,993.42
2018-12-04T05:52:36.123Z,993.49
2018-12-04T05:53:42.285Z,993.47
2018-12-04T05:54:48.424Z,993.47
2018-12-04T05:55:54.559Z,993.46
2018-12-04T05:57:01.734Z,993.49
2018-12-04T05:58:07.860Z,993.57
2018-12-04T05:59:13.014Z,993.58
2018-12-04T06:00:19.159Z,993.61
2018-12-04T06:01:25.312Z,993.60
2018-12-04T06:02:31.579Z,993.57
2018-12-04T06:03:37.606Z,993.56
2018-12-04T06:04:43.775Z,993.52
2018-12-04T06:05:49.901Z,993.57
2018-12-04T06:06:56.056Z,993.67
2018-12-04T06:08:02.204Z,993.71
2018-12-04T06:09:08.355Z,993.75
2018-12-04T06:10:14.515Z,993.72
2018-12-04T06:11:20.657Z,993.78
2018-12-04T06:12:26.809Z,993.79
2018-12-04T06:13:32.975Z,993.84
2018-12-04T06:14:39.120Z,993.87
2018-12-04T06:15:45.262Z,993.89
2018-12-04T06:16:51.415Z,993.93
2018-12-04T06:17:57.566Z,993.97
2018-12-04T06:19:03.720Z,993.99
2018-12-04T06:20:09.873Z,994.00
2018-12-04T06:21:16.023Z,994.01
2018-12-04T06:22:22.171Z,994.04
2018-12-04T06:23:28.332Z,994.05
2018-12-04T06:24:34.486Z,994.08
2018-12-04T06:25:40.645Z,994.07
2018-12-04T06:26:47.791Z,994.13
2018-12-04T06:27:52.940Z,994.14
2018-12-04T06:28:59.113Z,994.16
2018-12-04T06:30:05.264Z,994.20
2018-12-04T06:31:11.417Z,994.21
2018-12-04T06:32:17.574Z,994.21
2018-12-04T06:33:23.733Z,994.21
2018-12-04T06:34:29.884Z,994.19
2018-12-04T06:35:36.045Z,994.22
2018-12-04T06:36:42.200Z,994.22
2018-12-04T06:37:48.350Z,994.24
2018-12-04T06:38:54.520Z,994.32
2018-12-04T06:40:00.680Z,994.26
2018-12-04T06:41:06.841Z,994.30
2018-12-04T06:42:12.983Z,994.28
2018-12-04T06:43:19.157Z,994.28
2018-12-04T06:44:25.316Z,994.29
2018-12-04T06:45:31.587Z,994.23
2018-12-04T06:46:37.628Z,994.30
2018-12-04T06:47:43.786Z,994.36
2018-12-04T06:48:49.938Z,994.39
2018-12-04T06:49:56.109Z,994.41
2018-12-04T06:51:02.268Z,994.42
2018-12-04T06:52:08.429Z,994.44
2018-12-04T06:53:14.587Z,994.44
2018-12-04T06:54:20.754Z,994.54
2018-12-04T06:55:26.915Z,994.52
2018-12-04T06:56:33.084Z,994.60
2018-12-04T06:57:39.232Z,994.61
2018-12-04T06:58:45.401Z,994.65
2018-12-04T06:59:51.561Z,994.67
2018-12-04T07:00:57.719Z,994.74
2018-12-04T07:02:03.900Z,994.78
2018-12-04T07:03:10.045Z,994.78
2018-12-04T07:04:16.220Z,994.78
2018-12-04T07:05:22.377Z,994.84
2018-12-04T07:06:28.543Z,994.89
2018-12-04T07:07:34.712Z,994.97
2018-12-04T07:08:41.172Z,995.00
2018-12-04T07:09:47.018Z,995.02
2018-12-04T07:10:53.183Z,995.10
2018-12-04T07:12:02.508Z,995.15
2018-12-04T07:13:05.585Z,995.23
2018-12-04T07:14:11.642Z,995.28
2018-12-04T07:15:18.302Z,995.34
2018-12-04T07:16:23.961Z,995.38
2018-12-04T07:17:30.118Z,995.47
2018-12-04T07:18:36.270Z,995.50
2018-12-04T07:19:42.928Z,995.52
2018-12-04T07:20:48.584Z,995.54
2018-12-04T07:21:54.752Z,995.60
2018-12-04T07:23:00.894Z,995.59
2018-12-04T07:24:07.038Z,995.60
2018-12-04T07:25:13.203Z,995.65
2018-12-04T07:26:19.355Z,995.62
2018-12-04T07:27:25.513Z,995.63
2018-12-04T07:28:31.660Z,995.60
2018-12-04T07:29:37.820Z,995.64
2018-12-04T07:30:44.974Z,995.63
2018-12-04T07:31:50.141Z,995.69
2018-12-04T07:32:56.296Z,995.68
2018-12-04T07:34:02.449Z,995.75
2018-12-04T07:35:08.596Z,995.72
2018-12-04T07:36:14.763Z,995.73
2018-12-04T07:37:20.914Z,995.69
2018-12-04T07:38:27.058Z,995.70
2018-12-04T07:39:33.229Z,995.66
2018-12-04T07:40:39.374Z,995.65
2018-12-04T07:41:45.542Z,995.69
2018-12-04T07:42:51.699Z,995.62
2018-12-04T07:43:57.864Z,995.58
2018-12-04T07:45:04.014Z,995.65
2018-12-04T07:46:10.174Z,995.66
2018-12-04T07:47:16.337Z,995.65
2018-12-04T07:48:22.502Z,995.64
2018-12-04T07:49:28.666Z,995.67
2018-12-04T07:50:34.819Z,995.70
2018-12-04T07:51:40.982Z,995.73
2018-12-04T07:52:47.147Z,995.79
2018-12-04T07:53:53.304Z,995.84
2018-12-04T07:54:59.604Z,995.74
2018-12-04T07:56:05.643Z,995.78
2018-12-04T07:57:11.804Z,995.74
2018-12-04T07:58:17.977Z,995.70
2018-12-04T07:59:24.130Z,995.72
2018-12-04T08:00:30.293Z,995.67
2018-12-04T08:01:36.468Z,995.72
2018-12-04T08:02:42.665Z,995.77
2018-12-04T08:03:48.817Z,995.77
2018-12-04T08:04:54.987Z,995.79
2018-12-04T08:06:01.155Z,995.71
2018-12-04T08:07:07.326Z,995.76
2018-12-04T08:08:13.514Z,995.66
2018-12-04T08:09:19.671Z,995.66
2018-12-04T08:10:25.866Z,995.67
2018-12-04T08:11:32.011Z,995.63
2018-12-04T08:12:38.189Z,995.67
2018-12-04T08:13:44.376Z,995.72
2018-12-04T08:14:50.543Z,995.68
2018-12-04T08:15:56.711Z,995.67
2018-12-04T08:17:02.914Z,995.77
2018-12-04T08:18:09.073Z,995.78
2018-12-04T08:19:15.258Z,995.83
2018-12-04T08:20:21.422Z,995.87
2018-12-04T08:21:27.604Z,995.78
2018-12-04T08:22:33.783Z,995.82
2018-12-04T08:23:39.971Z,995.82
2018-12-04T08:24:46.147Z,995.82
2018-12-04T08:25:52.330Z,995.76
2018-12-04T08:26:58.500Z,995.79
2018-12-04T08:28:04.681Z,995.80
2018-12-04T08:29:10.870Z,995.77
2018-12-04T08:30:17.053Z,995.64
2018-12-04T08:31:23.236Z,995.76
2018-12-04T08:32:29.428Z,995.70
2018-12-04T08:33:35.627Z,995.70
2018-12-04T08:34:41.797Z,995.82
2018-12-04T08:35:47.977Z,995.78
2018-12-04T08:36:54.170Z,995.81
2018-12-04T08:38:00.346Z,995.88
2018-12-04T08:39:06.556Z,995.91
2018-12-04T08:40:13.727Z,995.83
2018-12-04T08:41:18.910Z,995.80
2018-12-04T08:42:25.292Z,995.81
2018-12-04T08:43:32.423Z,995.69
2018-12-04T08:44:37.587Z,995.67
2018-12-04T08:45:43.672Z,995.59
2018-12-04T08:46:49.865Z,995.53
2018-12-04T08:47:56.055Z,995.57
2018-12-04T08:49:02.252Z,995.37
2018-12-04T08:50:08.430Z,995.49
2018-12-04T08:51:14.635Z,995.65
2018-12-04T08:52:20.822Z,995.72
2018-12-04T08:53:27.018Z,995.89
2018-12-04T08:54:33.228Z,995.96
2018-12-04T08:55:39.405Z,995.88
2018-12-04T08:56:45.608Z,996.00
2018-12-04T08:57:51.796Z,996.05
2018-12-04T08:58:57.998Z,996.20
2018-12-04T09:00:04.209Z,996.18
2018-12-04T09:01:10.388Z,996.39
2018-12-04T09:02:16.591Z,996.60
2018-12-04T09:03:23.237Z,996.73
2018-12-04T09:04:28.979Z,996.85
2018-12-04T09:05:35.177Z,996.98
2018-12-04T09:06:41.380Z,997.09
2018-12-04T09:07:47.580Z,997.15
2018-12-04T09:08:53.795Z,997.19
2018-12-04T09:09:59.983Z,997.17
2018-12-04T09:11:06.188Z,997.22
2018-12-04T09:12:12.378Z,997.24
2018-12-04T09:13:18.575Z,997.21
2018-12-04T09:14:24.787Z,997.28
2018-12-04T09:15:30.977Z,997.24
2018-12-04T09:16:37.169Z,997.25
2018-12-04T09:17:43.386Z,997.26
2018-12-04T09:18:49.597Z,997.25
2018-12-04T09:19:55.812Z,997.24
2018-12-04T09:21:02.021Z,997.29
2018-12-04T09:22:08.236Z,997.32
2018-12-04T09:23:14.476Z,997.45
2018-12-04T09:24:20.967Z,997.44
2018-12-04T09:25:26.845Z,997.42
2018-12-04T09:26:33.084Z,997.44
2018-12-04T09:27:39.280Z,997.47
2018-12-04T09:28:45.518Z,997.54
2018-12-04T09:29:51.729Z,997.62
2018-12-04T09:30:57.918Z,997.50
2018-12-04T09:32:04.110Z,997.38
2018-12-04T09:33:10.342Z,997.42
2018-12-04T09:34:16.538Z,997.25
2018-12-04T09:35:22.764Z,997.24
2018-12-04T09:36:28.976Z,997.23
2018-12-04T09:37:35.189Z,997.12
2018-12-04T09:38:41.400Z,997.13
2018-12-04T09:39:47.640Z,996.99
2018-12-04T09:40:53.843Z,996.98
2018-12-04T09:42:01.062Z,997.02
2018-12-04T09:43:06.291Z,997.17
2018-12-04T09:44:12.496Z,997.24
2018-12-04T09:45:18.714Z,997.21
2018-12-04T09:46:24.921Z,996.73
2018-12-04T09:47:31.142Z,996.65
2018-12-04T09:48:37.355Z,996.65
2018-12-04T09:49:43.593Z,996.70
2018-12-04T09:50:49.788Z,996.61
2018-12-04T09:51:56.012Z,996.58
2018-12-04T09:53:02.215Z,996.62
2018-12-04T09:54:08.442Z,996.72
2018-12-04T09:55:14.657Z,996.98
2018-12-04T09:56:20.866Z,997.11
2018-12-04T09:57:27.089Z,997.21
2018-12-04T09:58:34.282Z,997.41
2018-12-04T09:59:39.705Z,997.53
2018-12-04T10:00:45.714Z,997.80
2018-12-04T10:01:51.923Z,997.92
2018-12-04T10:02:58.143Z,997.97
2018-12-04T10:04:04.340Z,998.13
2018-12-04T10:05:10.552Z,998.14
2018-12-04T10:06:16.753Z,998.09
2018-12-04T10:07:22.951Z,998.04
2018-12-04T10:08:29.161Z,997.98
2018-12-04T10:09:35.378Z,997.81
2018-12-04T10:10:41.589Z,997.83
2018-12-04T10:11:47.793Z,997.81
2018-12-04T10:12:54.102Z,997.66
2018-12-04T10:14:00.205Z,997.66
2018-12-04T10:15:06.415Z,997.57
2018-12-04T10:16:12.618Z,997.46
2018-12-04T10:17:18.833Z,997.41
2018-12-04T10:18:25.075Z,997.46
2018-12-04T10:19:31.248Z,997.59
2018-12-04T10:20:37.468Z,997.62
2018-12-04T10:21:43.683Z,997.25
2018-12-04T10:22:49.892Z,997.12
2018-12-04T10:23:56.107Z,997.22
2018-12-04T10:25:02.330Z,997.32
2018-12-04T10:26:08.548Z,997.31
2018-12-04T10:27:14.760Z,996.91
2018-12-04T10:28:20.991Z,996.70
2018-12-04T10:29:27.212Z,996.46
2018-12-04T10:30:33.435Z,996.36
2018-12-04T10:31:39.666Z,996.37
2018-12-04T10:32:45.888Z,996.32
2018-12-04T10:33:52.126Z,996.34
2018-12-04T10:34:58.355Z,996.37
2018-12-04T10:36:04.579Z,996.47
2018-12-04T10:37:10.814Z,996.47
2018-12-04T10:38:17.048Z,996.59
2018-12-04T10:39:23.296Z,996.56
2018-12-04T10:40:29.531Z,996.50
2018-12-04T10:41:35.766Z,996.43
2018-12-04T10:42:42.008Z,996.14
2018-12-04T10:43:48.249Z,996.02
2018-12-04T10:44:54.488Z,995.79
2018-12-04T10:46:00.724Z,995.94
2018-12-04T10:47:06.975Z,995.69
2018-12-04T10:48:13.216Z,995.55
2018-12-04T10:49:19.570Z,995.81
2018-12-04T10:50:25.712Z,995.87
2018-12-04T10:51:31.968Z,996.29
2018-12-04T10:52:38.199Z,996.32
2018-12-04T10:53:44.460Z,996.23
2018-12-04T10:54:50.716Z,996.01
2018-12-04T10:55:56.960Z,995.83
2018-12-04T10:57:03.238Z,995.76
2018-12-04T10:58:09.502Z,996.14
2018-12-04T10:59:15.741Z,996.24
2018-12-04T11:00:22.103Z,996.54
2018-12-04T11:01:28.254Z,996.82
2018-12-04T11:02:34.518Z,996.92
2018-12-04T11:03:40.798Z,996.65
2018-12-04T11:04:47.030Z,996.30
2018-12-04T11:05:53.287Z,996.27
2018-12-04T11:06:59.542Z,996.00
2018-12-04T11:08:05.814Z,996.04
2018-12-04T11:09:12.056Z,995.82
2018-12-04T11:10:18.310Z,996.01
2018-12-04T11:11:24.608Z,996.34
2018-12-04T11:12:30.847Z,996.04
2018-12-04T11:13:37.114Z,996.39
2018-12-04T11:14:43.390Z,996.32
2018-12-04T11:15:49.652Z,995.83
2018-12-04T11:16:55.931Z,995.99
2018-12-04T11:18:02.199Z,995.85
2018-12-04T11:19:08.475Z,996.01
2018-12-04T11:20:14.772Z,995.97
2018-12-04T11:21:21.028Z,996.00
2018-12-04T11:22:27.330Z,996.52
2018-12-04T11:23:33.631Z,996.34
2018-12-04T11:24:39.896Z,996.00
2018-12-04T11:25:46.223Z,995.87
2018-12-04T11:26:52.487Z,995.92
2018-12-04T11:27:58.769Z,995.63
2018-12-04T11:29:05.075Z,995.64
2018-12-04T11:30:11.423Z,996.08
2018-12-04T11:31:17.700Z,996.33
2018-12-04T11:32:24.009Z,995.61
2018-12-04T11:33:30.323Z,995.64
2018-12-04T11:34:36.670Z,995.79
2018-12-04T11:35:42.976Z,995.69
2018-12-04T11:36:49.292Z,995.58
2018-12-04T11:37:55.622Z,995.93
2018-12-04T11:39:01.952Z,995.90
2018-12-04T11:40:08.282Z,996.11
2018-12-04T11:41:14.605Z,996.22
2018-12-04T11:42:20.951Z,995.66
2018-12-04T11:43:27.291Z,995.85
2018-12-04T11:44:33.618Z,996.07
2018-12-04T11:45:39.976Z,995.63
2018-12-04T11:46:46.331Z,996.05
2018-12-04T11:47:52.705Z,995.63
2018-12-04T11:48:59.073Z,995.01
2018-12-04T11:50:05.455Z,994.64
2018-12-04T11:51:11.857Z,994.75
2018-12-04T11:52:18.251Z,994.77
2018-12-04T11:53:24.672Z,994.76
2018-12-04T11:54:31.085Z,994.87
2018-12-04T11:55:37.511Z,994.79
2018-12-04T11:56:43.945Z,994.79
2018-12-04T11:57:50.382Z,994.81
2018-12-04T11:58:56.825Z,994.67
2018-12-04T12:00:03.471Z,995.09
2018-12-04T12:01:09.734Z,994.58
2018-12-04T12:02:16.184Z,994.68
2018-12-04T12:03:22.635Z,995.14
2018-12-04T12:04:29.100Z,995.00
2018-12-04T12:05:35.547Z,995.22
2018-12-04T12:06:42.013Z,995.28
2018-12-04T12:07:48.482Z,995.01
2018-12-04T12:08:54.944Z,995.08
2018-12-04T12:10:01.404Z,995.09
2018-12-04T12:11:07.869Z,995.24
2018-12-04T12:12:14.326Z,995.53
2018-12-04T12:13:21.038Z,995.61
2018-12-04T12:14:27.262Z,996.56
2018-12-04T12:15:33.723Z,996.45
2018-12-04T12:16:40.186Z,996.10
2018-12-04T12:17:46.647Z,995.89
2018-12-04T12:18:53.101Z,995.66
2018-12-04T12:19:59.562Z,995.60
2018-12-04T12:21:06.033Z,995.49
2018-12-04T12:22:12.507Z,995.69
2018-12-04T12:23:18.975Z,995.78
2018-12-04T12:24:25.435Z,995.76
2018-12-04T12:25:31.908Z,995.65
2018-12-04T12:26:38.386Z,995.65
2018-12-04T12:27:44.863Z,995.53
2018-12-04T12:28:51.364Z,995.53
2018-12-04T12:29:57.827Z,995.75
2018-12-04T12:31:04.314Z,995.92
2018-12-04T12:32:10.802Z,995.85
2018-12-04T12:33:17.283Z,996.00
2018-12-04T12:34:23.798Z,995.91
2018-12-04T12:35:30.289Z,996.06
2018-12-04T12:36:36.793Z,996.20
2018-12-04T12:37:43.314Z,996.29
2018-12-04T12:38:49.818Z,996.30
2018-12-04T12:39:56.342Z,996.34
2018-12-04T12:41:02.861Z,996.65
2018-12-04T12:42:09.378Z,996.41
2018-12-04T12:43:15.914Z,996.80
2018-12-04T12:44:22.440Z,996.05
2018-12-04T12:45:29.938Z,996.10
2018-12-04T12:46:35.571Z,996.42
2018-12-04T12:47:41.967Z,996.47
2018-12-04T12:48:48.488Z,996.19
2018-12-04T12:49:55.008Z,996.34
2018-12-04T12:51:02.513Z,996.32
2018-12-04T12:52:08.232Z,996.26
2018-12-04T12:53:15.554Z,996.08
2018-12-04T12:54:21.092Z,996.57
2018-12-04T12:55:27.611Z,996.51
2018-12-04T12:56:34.150Z,996.21
2018-12-04T12:57:40.682Z,996.01
2018-12-04T12:58:47.217Z,996.02
2018-12-04T12:59:53.793Z,996.04
2018-12-04T13:01:00.346Z,996.03
2018-12-04T13:02:06.924Z,996.23
2018-12-04T13:03:13.496Z,996.08
2018-12-04T13:04:20.075Z,995.69
2018-12-04T13:05:26.663Z,996.39
2018-12-04T13:06:33.238Z,996.70
2018-12-04T13:07:39.830Z,996.89
2018-12-04T13:08:46.420Z,996.40
2018-12-04T13:09:52.993Z,996.69
2018-12-04T13:10:59.572Z,996.45
2018-12-04T13:12:06.164Z,996.74
2018-12-04T13:13:12.715Z,996.71
2018-12-04T13:14:19.294Z,996.89
2018-12-04T13:15:25.865Z,997.11
2018-12-04T13:16:33.420Z,996.22
2018-12-04T13:17:38.980Z,996.54
2018-12-04T13:18:45.540Z,997.16
2018-12-04T13:19:52.094Z,997.50
2018-12-04T13:20:58.650Z,997.64
2018-12-04T13:22:05.173Z,997.67
2018-12-04T13:23:11.701Z,997.54
2018-12-04T13:24:18.247Z,997.50
2018-12-04T13:25:24.781Z,997.46
2018-12-04T13:26:31.324Z,997.15
2018-12-04T13:27:37.836Z,996.88
2018-12-04T13:28:44.378Z,997.51
2018-12-04T13:29:50.906Z,997.64
2018-12-04T13:30:57.434Z,997.81
2018-12-04T13:32:03.943Z,997.94
2018-12-04T13:33:10.464Z,998.04
2018-12-04T13:34:16.976Z,997.98
2018-12-04T13:35:23.585Z,997.91
2018-12-04T13:36:29.989Z,997.92
2018-12-04T13:37:36.480Z,997.88
2018-12-04T13:38:42.984Z,997.78
2018-12-04T13:39:49.599Z,997.96
2018-12-04T13:40:55.977Z,997.53
2018-12-04T13:42:02.501Z,997.29
2018-12-04T13:43:08.974Z,997.16
2018-12-04T13:44:15.795Z,997.19
2018-12-04T13:45:22.019Z,996.93
2018-12-04T13:46:28.533Z,997.12